Watersmeet, MI (49969)

12:32 AM CST on February 11, 2016 (GMT -0600)
Misery Bay Boat Launch | | Change Station
CLOSE
Current Station
Personal Weather Station
Location: Watersmeet, MI
Elevation: 1685 ft
Nearby Weather Stations

Elev 1685 ft 46.16 °N, 89.12 °W | Updated 3 minutes ago

Overcast
Overcast
4.3 °F
Feels Like 4 °F
N
0.0
Wind Variable Wind from ESE

Today
High -- | Low -- °F
--% Chance of Precip.
Yesterday
High -- | Low -- °F
Precip. -- in
Pressure 30.08 in
Visibility 5.0 miles
Clouds Overcast 3500 ft
Windchill 4 °F
Dew Point 1 °F
Humidity 87%
Rainfall 0.00 in
Snow Depth Not available.
7:06 AM 5:15 PM
Waxing Crescent, 10% visible
METAR KLNL 110610Z AUTO 31003KT 5SM -SN OVC035 M14/M17 A3008 RMK AO2 T11411166
Pressure 30.08 in
Visibility 5.0 miles
Clouds Overcast 3500 ft
Windchill 4 °F
Dew Point 1 °F
Humidity 87%
Rainfall 0.00 in
Snow Depth Not available.
7:06 AM 5:15 PM
Waxing Crescent, 10% visible
METAR KLNL 110610Z AUTO 31003KT 5SM -SN OVC035 M14/M17 A3008 RMK AO2 T11411166

10-Day Weather Forecast

Almanac

Astronomy

Feb. 11, 2016 Rise Set
Actual Time
Civil Twilight
Nautical Twilight
Astronomical Twilight
Moon
Length of Visible Light
Length of Day
Tomorrow will be .
, % of the Moon is Illuminated

Today's Extremes

State Highs State Lows

Community

WunderPhotos

Upload Photos

1,892,028 photos uploaded!

WunderBlog® & News

Nearby

Air Quality

  Air Quality AQ Index Pollutant
Not available.

Snow Depth

Station Depth Elevation

Earthquake Activity

City Distance Mag. Time & Date
Minimum magnitude displayed is 2.5.

Coastal Water Temperatures

Place Temperature

Stations

Nearby Weather Stations

Station Location Temp. Windchill Dew Point Humidity Wind Precip. Elev Updated Type
                   

Watches & Warnings

There are currently no watches in effect.